createdAt,value
2022-10-14T00:01:54.959Z,13.55
2022-10-14T00:04:30.198Z,13.56
2022-10-14T00:07:05.545Z,13.56
2022-10-14T00:09:33.365Z,13.58
2022-10-14T00:12:01.200Z,13.60
2022-10-14T00:14:33.928Z,13.59
2022-10-14T00:17:05.022Z,13.60
2022-10-14T00:19:32.757Z,13.57
2022-10-14T00:22:02.806Z,13.59
2022-10-14T00:24:47.237Z,13.59
2022-10-14T00:27:21.366Z,13.60
2022-10-14T00:29:49.127Z,13.57
2022-10-14T00:32:17.428Z,13.57
2022-10-14T00:34:45.495Z,13.54
2022-10-14T00:37:16.624Z,13.54
2022-10-14T00:39:44.770Z,13.50
2022-10-14T00:42:20.158Z,13.51
2022-10-14T00:45:02.639Z,13.50
2022-10-14T00:47:42.905Z,13.52
2022-10-14T00:50:16.093Z,13.51
2022-10-14T00:52:53.103Z,13.47
2022-10-14T00:55:22.060Z,13.47
2022-10-14T00:57:51.718Z,13.45
2022-10-14T01:00:25.768Z,13.46
2022-10-14T01:02:53.872Z,13.44
2022-10-14T01:05:35.448Z,13.46
2022-10-14T01:08:10.220Z,13.46
2022-10-14T01:10:44.819Z,13.46
2022-10-14T01:13:24.807Z,13.46
2022-10-14T01:16:01.836Z,13.48
2022-10-14T01:19:06.273Z,13.45
2022-10-14T01:21:38.649Z,13.44
2022-10-14T01:24:41.371Z,13.46
2022-10-14T01:27:20.837Z,13.47
2022-10-14T01:30:19.607Z,13.47
2022-10-14T01:32:58.946Z,13.47
2022-10-14T01:35:57.645Z,13.47
2022-10-14T01:38:30.814Z,13.47
2022-10-14T01:41:07.736Z,13.47
2022-10-14T01:43:36.653Z,13.44
2022-10-14T01:46:09.064Z,13.49
2022-10-14T01:48:46.935Z,13.49
2022-10-14T01:51:24.675Z,13.51
2022-10-14T01:53:58.968Z,13.53
2022-10-14T01:56:35.890Z,13.54
2022-10-14T01:59:07.865Z,13.56
2022-10-14T02:01:40.167Z,13.58
2022-10-14T02:04:23.965Z,13.58
2022-10-14T02:07:11.393Z,13.58
2022-10-14T02:09:49.926Z,13.57
2022-10-14T02:12:31.395Z,13.59
2022-10-14T02:15:11.707Z,13.58
2022-10-14T02:17:55.419Z,13.58
2022-10-14T02:20:30.271Z,13.61
2022-10-14T02:23:09.559Z,13.60
2022-10-14T02:25:41.981Z,13.45
2022-10-14T02:28:13.744Z,13.55
2022-10-14T02:30:48.679Z,13.53
2022-10-14T02:33:40.358Z,13.51
2022-10-14T02:36:15.227Z,13.51
2022-10-14T02:38:46.357Z,13.49
2022-10-14T02:41:22.437Z,13.53
2022-10-14T02:43:52.389Z,13.58
2022-10-14T02:46:22.068Z,13.57
2022-10-14T02:48:51.793Z,13.59
2022-10-14T02:51:20.390Z,13.56
2022-10-14T02:53:48.249Z,13.52
2022-10-14T02:56:17.358Z,13.50
2022-10-14T02:58:45.301Z,13.45
2022-10-14T03:01:13.354Z,13.44
2022-10-14T03:03:41.287Z,13.43
2022-10-14T03:06:10.499Z,13.44
2022-10-14T03:08:38.609Z,13.44
2022-10-14T03:11:07.805Z,13.46
2022-10-14T03:13:36.162Z,13.46
2022-10-14T03:16:04.468Z,13.50
2022-10-14T03:18:34.171Z,13.52
2022-10-14T03:21:11.037Z,13.52
2022-10-14T03:23:41.779Z,13.53
2022-10-14T03:26:13.668Z,13.49
2022-10-14T03:28:44.460Z,13.53
2022-10-14T03:31:18.898Z,13.51
2022-10-14T03:34:05.528Z,13.52
2022-10-14T03:36:36.823Z,13.53
2022-10-14T03:39:06.170Z,13.54
2022-10-14T03:41:50.557Z,13.49
2022-10-14T03:44:23.955Z,13.46
2022-10-14T03:47:24.229Z,13.45
2022-10-14T03:49:52.300Z,13.45
2022-10-14T03:52:29.917Z,13.39
2022-10-14T03:55:07.411Z,13.37
2022-10-14T03:57:35.868Z,13.35
2022-10-14T04:00:07.157Z,13.38
2022-10-14T04:02:44.372Z,13.41
2022-10-14T04:05:32.394Z,13.44
2022-10-14T04:08:04.566Z,13.44
2022-10-14T04:10:32.472Z,13.43
2022-10-14T04:13:01.133Z,13.35
2022-10-14T04:15:36.773Z,13.46
2022-10-14T04:18:25.018Z,13.46
2022-10-14T04:20:56.410Z,13.44
2022-10-14T04:23:27.657Z,13.51
2022-10-14T04:26:05.306Z,13.46
2022-10-14T04:28:33.822Z,13.38
2022-10-14T04:31:09.337Z,13.28
2022-10-14T04:33:49.125Z,13.14
2022-10-14T04:36:22.670Z,13.01
2022-10-14T04:38:51.706Z,12.98
2022-10-14T04:41:20.244Z,12.92
2022-10-14T04:43:50.346Z,12.97
2022-10-14T04:46:28.186Z,12.97
2022-10-14T04:48:55.956Z,12.95
2022-10-14T04:51:27.692Z,12.97
2022-10-14T04:54:11.291Z,12.95
2022-10-14T04:56:56.315Z,12.91
2022-10-14T04:59:24.556Z,12.85
2022-10-14T05:02:15.480Z,12.79
2022-10-14T05:04:58.271Z,12.81
2022-10-14T05:07:28.320Z,12.81
2022-10-14T05:10:06.259Z,12.85
2022-10-14T05:12:41.003Z,12.85
2022-10-14T05:15:10.951Z,12.83
2022-10-14T05:17:45.682Z,12.80
2022-10-14T05:20:17.427Z,12.84
2022-10-14T05:22:49.480Z,12.88
2022-10-14T05:25:18.791Z,12.90
2022-10-14T05:27:46.810Z,12.85
2022-10-14T05:30:14.975Z,12.77
2022-10-14T05:32:47.883Z,12.73
2022-10-14T05:35:39.888Z,12.79
2022-10-14T05:38:07.960Z,12.85
2022-10-14T05:40:41.261Z,12.92
2022-10-14T05:43:09.206Z,12.98
2022-10-14T05:45:40.973Z,12.98
2022-10-14T05:48:09.691Z,12.98
2022-10-14T05:50:37.887Z,12.94
2022-10-14T05:53:11.357Z,12.92
2022-10-14T05:55:44.587Z,12.90
2022-10-14T05:58:12.286Z,12.89
2022-10-14T06:00:43.794Z,12.86
2022-10-14T06:03:16.184Z,12.85
2022-10-14T06:05:45.837Z,12.92
2022-10-14T06:08:14.137Z,13.00
2022-10-14T06:10:41.906Z,13.10
2022-10-14T06:13:11.114Z,13.20
2022-10-14T06:15:40.331Z,13.19
2022-10-14T06:18:08.147Z,13.21
2022-10-14T06:20:36.479Z,13.24
2022-10-14T06:23:04.433Z,13.28
2022-10-14T06:25:32.633Z,13.27
2022-10-14T06:28:04.140Z,13.27
2022-10-14T06:30:33.501Z,13.28
2022-10-14T06:33:01.334Z,13.04
2022-10-14T06:35:29.236Z,13.29
2022-10-14T06:37:57.148Z,13.28
2022-10-14T06:40:25.012Z,13.42
2022-10-14T06:42:53.621Z,13.44
2022-10-14T06:45:21.429Z,13.46
2022-10-14T06:47:50.570Z,13.28
2022-10-14T06:50:18.579Z,13.52
2022-10-14T06:52:46.604Z,13.59
2022-10-14T06:55:14.677Z,13.62
2022-10-14T06:57:42.542Z,13.61
2022-10-14T07:00:11.680Z,13.62
2022-10-14T07:02:39.635Z,13.71
2022-10-14T07:05:09.377Z,13.76
2022-10-14T07:07:37.254Z,13.70
2022-10-14T07:10:05.461Z,13.77
2022-10-14T07:12:33.234Z,13.79
2022-10-14T07:15:00.961Z,13.83
2022-10-14T07:17:28.741Z,13.82
2022-10-14T07:19:56.479Z,13.77
2022-10-14T07:22:25.579Z,13.70
2022-10-14T07:24:53.271Z,13.63
2022-10-14T07:27:21.352Z,13.50
2022-10-14T07:29:49.260Z,13.56
2022-10-14T07:32:17.070Z,13.54
2022-10-14T07:34:44.826Z,13.60
2022-10-14T07:37:12.521Z,13.69
2022-10-14T07:39:41.644Z,13.77
2022-10-14T07:42:09.540Z,13.86
2022-10-14T07:44:39.631Z,13.98
2022-10-14T07:47:07.422Z,13.98
2022-10-14T07:49:35.469Z,14.12
2022-10-14T07:52:03.251Z,14.15
2022-10-14T07:54:32.559Z,14.16
2022-10-14T07:57:01.844Z,14.18
2022-10-14T07:59:29.661Z,14.23
2022-10-14T08:01:57.420Z,14.30
2022-10-14T08:04:26.112Z,14.30
2022-10-14T08:06:53.897Z,14.30
2022-10-14T08:09:22.141Z,14.30
2022-10-14T08:11:50.406Z,14.31
2022-10-14T08:14:19.467Z,14.35
2022-10-14T08:16:47.629Z,14.49
2022-10-14T08:19:15.809Z,14.65
2022-10-14T08:21:44.128Z,14.82
2022-10-14T08:24:12.478Z,14.94
2022-10-14T08:26:49.300Z,15.08
2022-10-14T08:29:17.212Z,15.04
2022-10-14T08:31:46.781Z,14.85
2022-10-14T08:34:14.501Z,14.73
2022-10-14T08:36:42.311Z,14.66
2022-10-14T08:41:55.522Z,14.94
2022-10-14T08:44:26.388Z,15.15
2022-10-14T08:46:58.486Z,15.29
2022-10-14T08:49:31.787Z,15.18
2022-10-14T08:52:03.750Z,14.97
2022-10-14T08:54:37.570Z,14.89
2022-10-14T08:57:07.089Z,15.05
2022-10-14T08:59:40.112Z,15.17
2022-10-14T09:02:22.184Z,15.40
2022-10-14T09:04:50.427Z,15.52
2022-10-14T09:07:20.838Z,15.48
2022-10-14T09:09:50.878Z,15.38
2022-10-14T09:12:24.164Z,15.36
2022-10-14T09:15:04.559Z,15.53
2022-10-14T09:17:38.140Z,15.66
2022-10-14T09:20:17.618Z,15.80
2022-10-14T09:22:47.226Z,15.76
2022-10-14T09:25:17.199Z,15.74
2022-10-14T09:30:16.518Z,15.97
2022-10-14T09:32:49.001Z,16.28
2022-10-14T09:35:23.789Z,16.51
2022-10-14T09:37:52.407Z,16.49
2022-10-14T09:40:27.654Z,16.46
2022-10-14T09:43:00.684Z,16.48
2022-10-14T09:45:31.519Z,16.52
2022-10-14T09:48:07.202Z,16.37
2022-10-14T09:50:39.281Z,16.23
2022-10-14T09:53:16.491Z,16.11
2022-10-14T09:56:00.326Z,15.80
2022-10-14T09:58:35.808Z,16.00
2022-10-14T10:01:04.462Z,15.97
2022-10-14T10:03:35.767Z,16.03
2022-10-14T10:06:07.402Z,16.16
2022-10-14T10:08:37.858Z,16.15
2022-10-14T10:11:08.892Z,16.33
2022-10-14T10:13:41.578Z,16.16
2022-10-14T10:16:20.024Z,16.21
2022-10-14T10:18:49.639Z,16.32
2022-10-14T10:21:20.056Z,16.63
2022-10-14T10:23:53.441Z,16.92
2022-10-14T10:26:25.919Z,16.96
2022-10-14T10:28:57.455Z,16.94
2022-10-14T10:31:48.276Z,16.93
2022-10-14T10:34:51.080Z,16.86
2022-10-14T10:37:30.658Z,16.86
2022-10-14T10:40:20.098Z,17.06
2022-10-14T10:42:59.704Z,16.96
2022-10-14T10:45:39.214Z,16.86
2022-10-14T10:48:15.655Z,16.87
2022-10-14T10:50:52.548Z,16.85
2022-10-14T10:53:45.368Z,16.92
2022-10-14T10:56:23.809Z,16.98
2022-10-14T10:59:06.443Z,17.01
2022-10-14T11:01:44.886Z,17.08
2022-10-14T11:04:32.060Z,17.12
2022-10-14T11:07:31.192Z,17.14
2022-10-14T11:10:25.380Z,17.14
2022-10-14T11:13:00.795Z,17.04
2022-10-14T11:15:45.722Z,17.18
2022-10-14T11:18:20.695Z,17.55
2022-10-14T11:21:01.505Z,17.81
2022-10-14T11:23:42.228Z,17.97
2022-10-14T11:26:30.390Z,17.83
2022-10-14T11:29:06.177Z,17.69
2022-10-14T11:31:39.615Z,17.59
2022-10-14T11:34:27.987Z,17.61
2022-10-14T11:37:04.873Z,17.98
2022-10-14T11:39:40.894Z,18.26
2022-10-14T11:42:28.658Z,18.39
2022-10-14T11:45:16.074Z,18.34
2022-10-14T11:47:52.111Z,18.12
2022-10-14T11:50:26.174Z,17.99
2022-10-14T11:52:57.213Z,17.96
2022-10-14T11:55:30.931Z,18.00
2022-10-14T11:58:03.553Z,18.10
2022-10-14T12:00:35.006Z,18.10
2022-10-14T12:03:28.639Z,18.09
2022-10-14T12:06:04.239Z,18.16
2022-10-14T12:08:44.004Z,18.21
2022-10-14T12:11:19.642Z,18.12
2022-10-14T12:13:52.274Z,18.05
2022-10-14T12:16:22.519Z,17.99
2022-10-14T12:18:53.763Z,17.80
2022-10-14T12:21:33.266Z,17.59
2022-10-14T12:24:06.378Z,17.51
2022-10-14T12:26:50.073Z,17.55
2022-10-14T12:29:21.680Z,17.54
2022-10-14T12:31:51.933Z,17.54
2022-10-14T12:34:34.818Z,17.51
2022-10-14T12:37:51.200Z,17.46
2022-10-14T12:40:32.179Z,17.46
2022-10-14T12:43:05.359Z,17.50
2022-10-14T12:45:36.086Z,17.51
2022-10-14T12:48:08.489Z,17.44
2022-10-14T12:50:39.033Z,17.54
2022-10-14T12:53:09.169Z,17.65
2022-10-14T12:55:48.605Z,17.70
2022-10-14T12:58:24.848Z,17.63
2022-10-14T13:00:59.174Z,17.58
2022-10-14T13:03:29.354Z,17.60
2022-10-14T13:06:28.853Z,17.56
2022-10-14T13:09:19.923Z,17.57
2022-10-14T13:12:28.729Z,17.57
2022-10-14T13:15:00.484Z,17.62
2022-10-14T13:17:44.819Z,17.49
2022-10-14T13:20:30.084Z,17.51
2022-10-14T13:23:21.028Z,17.57
2022-10-14T13:25:53.169Z,17.62
2022-10-14T13:28:29.566Z,17.60
2022-10-14T13:31:06.334Z,17.58
2022-10-14T13:33:41.743Z,17.57
2022-10-14T13:36:26.942Z,17.45
2022-10-14T13:39:08.141Z,17.44
2022-10-14T13:41:45.316Z,17.43
2022-10-14T13:44:26.538Z,17.40
2022-10-14T13:47:07.259Z,17.41
2022-10-14T13:49:40.471Z,17.23
2022-10-14T13:52:17.701Z,17.42
2022-10-14T13:54:45.624Z,17.32
2022-10-14T14:02:56.700Z,17.41
2022-10-14T14:11:15.599Z,17.46
2022-10-14T14:13:53.434Z,17.22
2022-10-14T14:16:30.182Z,17.42
2022-10-14T14:19:14.845Z,17.43
2022-10-14T14:21:42.689Z,17.39
2022-10-14T14:24:19.584Z,17.37
2022-10-14T14:26:55.261Z,17.30
2022-10-14T14:29:28.311Z,17.24
2022-10-14T14:32:07.160Z,17.24
2022-10-14T14:34:39.672Z,17.21
2022-10-14T14:40:06.551Z,17.12
2022-10-14T14:42:37.156Z,17.11
2022-10-14T14:45:08.690Z,17.04
2022-10-14T14:47:36.694Z,16.99
2022-10-14T14:52:59.284Z,16.92
2022-10-14T14:55:39.855Z,16.90
2022-10-14T14:58:21.339Z,16.86
2022-10-14T15:00:50.205Z,16.92
2022-10-14T15:03:21.136Z,16.94
2022-10-14T15:05:57.029Z,16.93
2022-10-14T15:08:28.741Z,16.86
2022-10-14T15:10:59.106Z,16.82
2022-10-14T15:13:31.139Z,16.68
2022-10-14T15:15:59.232Z,16.88
2022-10-14T15:18:28.790Z,16.88
2022-10-14T15:21:19.192Z,16.84
2022-10-14T15:24:03.198Z,16.79
2022-10-14T15:26:34.581Z,16.73
2022-10-14T15:29:18.700Z,16.70
2022-10-14T15:31:48.374Z,16.66
2022-10-14T15:34:21.683Z,16.67
2022-10-14T15:36:54.175Z,16.65
2022-10-14T15:39:23.115Z,16.63
2022-10-14T15:41:50.920Z,16.61
2022-10-14T15:44:18.797Z,16.60
2022-10-14T15:47:05.255Z,16.60
2022-10-14T15:49:37.045Z,16.56
2022-10-14T15:52:06.979Z,16.52
2022-10-14T15:54:34.883Z,16.48
2022-10-14T15:57:02.721Z,16.46
2022-10-14T15:59:30.447Z,16.45
2022-10-14T16:01:58.873Z,16.44
2022-10-14T16:04:27.945Z,16.42
2022-10-14T16:06:57.509Z,16.42
2022-10-14T16:09:27.723Z,16.41
2022-10-14T16:11:58.070Z,16.40
2022-10-14T16:14:27.001Z,16.39
2022-10-14T16:16:55.271Z,16.36
2022-10-14T16:19:23.027Z,16.34
2022-10-14T16:21:50.891Z,16.29
2022-10-14T16:24:20.595Z,16.26
2022-10-14T16:26:51.136Z,16.22
2022-10-14T16:29:20.709Z,16.17
2022-10-14T16:31:52.520Z,16.14
2022-10-14T16:34:21.519Z,16.14
2022-10-14T16:36:50.248Z,16.08
2022-10-14T16:39:21.293Z,16.10
2022-10-14T16:41:50.679Z,16.11
2022-10-14T16:44:27.777Z,16.11
2022-10-14T16:47:17.509Z,16.11
2022-10-14T16:49:46.997Z,16.09
2022-10-14T16:52:15.840Z,16.06
2022-10-14T16:54:43.915Z,15.99
2022-10-14T16:57:14.003Z,16.05
2022-10-14T16:59:41.823Z,16.07
2022-10-14T17:02:15.042Z,16.06
2022-10-14T17:04:46.112Z,16.06
2022-10-14T17:07:14.909Z,16.07
2022-10-14T17:09:42.629Z,16.07
2022-10-14T17:12:13.802Z,16.04
2022-10-14T17:14:49.551Z,15.99
2022-10-14T17:17:17.525Z,15.95
2022-10-14T17:19:45.469Z,15.93
2022-10-14T17:22:13.431Z,15.86
2022-10-14T17:24:41.165Z,15.83
2022-10-14T17:27:10.770Z,15.79
2022-10-14T17:29:38.609Z,15.74
2022-10-14T17:32:08.326Z,15.58
2022-10-14T17:34:36.127Z,15.65
2022-10-14T17:39:40.984Z,15.58
2022-10-14T17:42:08.846Z,15.54
2022-10-14T17:44:43.459Z,15.54
2022-10-14T17:47:13.117Z,15.50
2022-10-14T17:49:40.784Z,15.47
2022-10-14T17:52:08.557Z,15.46
2022-10-14T17:54:36.366Z,15.45
2022-10-14T17:57:04.251Z,15.41
2022-10-14T17:59:32.321Z,15.38
2022-10-14T18:02:03.852Z,15.37
2022-10-14T18:04:33.609Z,15.38
2022-10-14T18:07:01.565Z,15.37
2022-10-14T18:09:29.479Z,15.32
2022-10-14T18:12:12.987Z,15.25
2022-10-14T18:14:41.140Z,15.24
2022-10-14T18:17:10.635Z,15.22
2022-10-14T18:19:40.766Z,15.20
2022-10-14T18:22:11.035Z,15.18
2022-10-14T18:24:39.334Z,15.19
2022-10-14T18:27:07.576Z,15.17
2022-10-14T18:29:35.353Z,15.12
2022-10-14T18:32:03.089Z,15.13
2022-10-14T18:34:31.053Z,14.93
2022-10-14T18:37:00.241Z,15.14
2022-10-14T18:39:28.060Z,15.12
2022-10-14T18:41:55.906Z,15.10
2022-10-14T18:44:24.444Z,15.11
2022-10-14T18:46:52.858Z,15.10
2022-10-14T18:49:20.758Z,15.12
2022-10-14T18:51:48.654Z,15.13
2022-10-14T18:54:20.829Z,15.14
2022-10-14T18:56:49.781Z,15.15
2022-10-14T18:59:20.080Z,15.17
2022-10-14T19:01:52.071Z,15.13
2022-10-14T19:04:22.134Z,15.14
2022-10-14T19:06:50.220Z,15.13
2022-10-14T19:09:24.638Z,15.00
2022-10-14T19:11:53.496Z,15.12
2022-10-14T19:14:22.581Z,15.12
2022-10-14T19:16:50.418Z,15.08
2022-10-14T19:19:19.961Z,15.05
2022-10-14T19:21:53.996Z,15.06
2022-10-14T19:24:23.174Z,15.01
2022-10-14T19:26:51.588Z,15.09
2022-10-14T19:29:19.302Z,15.10
2022-10-14T19:31:47.141Z,15.02
2022-10-14T19:34:17.329Z,15.08
2022-10-14T19:36:45.897Z,15.09
2022-10-14T19:39:15.935Z,15.10
2022-10-14T19:41:46.632Z,15.06
2022-10-14T19:44:15.917Z,15.11
2022-10-14T19:46:44.321Z,15.07
2022-10-14T19:49:13.721Z,15.06
2022-10-14T19:51:41.788Z,15.04
2022-10-14T19:54:12.284Z,15.09
2022-10-14T19:56:40.472Z,15.08
2022-10-14T19:59:10.681Z,15.11
2022-10-14T20:01:38.510Z,15.11
2022-10-14T20:04:06.980Z,15.07
2022-10-14T20:06:37.924Z,15.10
2022-10-14T20:09:05.968Z,15.09
2022-10-14T20:11:34.082Z,15.11
2022-10-14T20:14:01.952Z,15.08
2022-10-14T20:16:31.103Z,15.06
2022-10-14T20:18:58.910Z,15.04
2022-10-14T20:21:26.888Z,15.07
2022-10-14T20:23:54.676Z,15.08
2022-10-14T20:26:22.968Z,15.07
2022-10-14T20:28:51.722Z,15.01
2022-10-14T20:31:21.847Z,14.94
2022-10-14T20:33:51.117Z,14.94
2022-10-14T20:36:20.732Z,14.88
2022-10-14T20:38:49.384Z,14.91
2022-10-14T20:41:19.390Z,14.92
2022-10-14T20:43:48.400Z,14.88
2022-10-14T20:46:17.175Z,14.84
2022-10-14T20:48:45.339Z,14.83
2022-10-14T20:51:17.519Z,14.81
2022-10-14T20:53:45.318Z,14.84
2022-10-14T20:56:14.063Z,14.81
2022-10-14T20:58:42.680Z,14.83
2022-10-14T21:01:12.736Z,14.87
2022-10-14T21:03:41.370Z,14.91
2022-10-14T21:06:11.477Z,14.91
2022-10-14T21:08:41.183Z,14.92
2022-10-14T21:11:14.879Z,14.96
2022-10-14T21:13:46.043Z,15.00
2022-10-14T21:16:16.031Z,15.04
2022-10-14T21:18:46.834Z,15.06
2022-10-14T21:21:16.799Z,15.02
2022-10-14T21:23:46.614Z,14.98
2022-10-14T21:26:14.821Z,15.01
2022-10-14T21:28:42.630Z,15.02
2022-10-14T21:31:13.720Z,15.03
2022-10-14T21:33:43.960Z,15.02
2022-10-14T21:36:13.925Z,15.01
2022-10-14T21:38:42.848Z,14.92
2022-10-14T21:41:12.654Z,14.91
2022-10-14T21:43:40.935Z,14.89
2022-10-14T21:46:11.470Z,14.91
2022-10-14T21:48:40.098Z,14.95
2022-10-14T21:51:10.283Z,14.99
2022-10-14T21:53:39.341Z,15.01
2022-10-14T21:56:07.878Z,14.98
2022-10-14T21:58:37.383Z,14.98
2022-10-14T22:01:07.661Z,14.99
2022-10-14T22:03:36.684Z,15.02
2022-10-14T22:06:06.918Z,14.98
2022-10-14T22:08:36.803Z,14.92
2022-10-14T22:11:05.694Z,14.92
2022-10-14T22:13:37.591Z,14.90
2022-10-14T22:16:06.012Z,14.90
2022-10-14T22:18:33.841Z,14.90
2022-10-14T22:21:04.982Z,14.93
2022-10-14T22:23:33.037Z,14.95
2022-10-14T22:26:01.894Z,14.76
2022-10-14T22:28:30.734Z,14.96
2022-10-14T22:31:05.741Z,14.98
2022-10-14T22:33:35.245Z,14.98
2022-10-14T22:36:08.042Z,14.98
2022-10-14T22:38:36.787Z,15.01
2022-10-14T22:41:04.880Z,15.01
2022-10-14T22:43:34.064Z,15.00
2022-10-14T22:46:05.807Z,14.98
2022-10-14T22:48:34.495Z,14.94
2022-10-14T22:51:08.219Z,14.96
2022-10-14T22:53:37.522Z,14.96
2022-10-14T22:56:06.488Z,14.94
2022-10-14T22:58:34.680Z,14.96
2022-10-14T23:01:12.158Z,14.96
2022-10-14T23:03:40.506Z,14.96
2022-10-14T23:06:11.267Z,14.90
2022-10-14T23:08:41.182Z,14.96
2022-10-14T23:11:11.152Z,14.92
2022-10-14T23:13:38.967Z,14.94
2022-10-14T23:16:08.672Z,14.97
2022-10-14T23:18:39.745Z,14.98
2022-10-14T23:21:12.505Z,14.99
2022-10-14T23:23:40.984Z,14.99
2022-10-14T23:26:10.183Z,15.01
2022-10-14T23:28:38.329Z,15.01
2022-10-14T23:31:11.077Z,15.01
2022-10-14T23:33:40.734Z,15.01
2022-10-14T23:36:10.757Z,15.01
2022-10-14T23:38:39.826Z,14.95
2022-10-14T23:41:09.219Z,14.99
2022-10-14T23:43:40.669Z,14.96
2022-10-14T23:46:09.344Z,15.01
2022-10-14T23:48:37.576Z,14.99
2022-10-14T23:51:09.829Z,15.00
2022-10-14T23:53:40.121Z,14.98
2022-10-14T23:56:08.681Z,14.91
2022-10-14T23:58:36.565Z,14.85
